sensor_id;sensor_type;location;lat;lon;timestamp;P1;durP1;ratioP1;P2;durP2;ratioP2
53207;SDS011;39093;52.788;6.940;2024-03-23T00:53:01;46.60;;;8.32;;
53207;SDS011;39093;52.788;6.940;2024-03-23T00:55:27;41.45;;;8.77;;
53207;SDS011;39093;52.788;6.940;2024-03-23T00:57:53;43.33;;;9.00;;
53207;SDS011;39093;52.788;6.940;2024-03-23T01:00:19;56.63;;;9.15;;
53207;SDS011;39093;52.788;6.940;2024-03-23T01:02:45;45.03;;;7.25;;
53207;SDS011;39093;52.788;6.940;2024-03-23T01:05:11;49.97;;;8.80;;
53207;SDS011;39093;52.788;6.940;2024-03-23T01:07:37;49.03;;;8.88;;
53207;SDS011;39093;52.788;6.940;2024-03-23T01:10:03;51.85;;;9.02;;
53207;SDS011;39093;52.788;6.940;2024-03-23T01:12:29;64.63;;;9.60;;
53207;SDS011;39093;52.788;6.940;2024-03-23T01:14:55;53.90;;;7.90;;
53207;SDS011;39093;52.788;6.940;2024-03-23T01:17:21;52.60;;;8.23;;
53207;SDS011;39093;52.788;6.940;2024-03-23T01:19:47;46.78;;;8.07;;
53207;SDS011;39093;52.788;6.940;2024-03-23T01:22:13;48.45;;;8.10;;
53207;SDS011;39093;52.788;6.940;2024-03-23T01:24:38;36.60;;;7.72;;
53207;SDS011;39093;52.788;6.940;2024-03-23T01:27:05;41.88;;;7.60;;
53207;SDS011;39093;52.788;6.940;2024-03-23T01:29:30;53.97;;;10.27;;
53207;SDS011;39093;52.788;6.940;2024-03-23T01:31:56;51.40;;;7.40;;
53207;SDS011;39093;52.788;6.940;2024-03-23T01:34:22;53.28;;;8.75;;
53207;SDS011;39093;52.788;6.940;2024-03-23T01:36:50;48.95;;;8.43;;
53207;SDS011;39093;52.788;6.940;2024-03-23T01:39:16;54.78;;;8.82;;
53207;SDS011;39093;52.788;6.940;2024-03-23T01:41:42;51.20;;;9.70;;
53207;SDS011;39093;52.788;6.940;2024-03-23T01:44:08;51.97;;;8.38;;
53207;SDS011;39093;52.788;6.940;2024-03-23T01:46:35;49.78;;;9.50;;
53207;SDS011;39093;52.788;6.940;2024-03-23T01:49:03;43.85;;;8.23;;
53207;SDS011;39093;52.788;6.940;2024-03-23T01:51:31;48.50;;;7.90;;
53207;SDS011;39093;52.788;6.940;2024-03-23T01:53:58;50.55;;;8.00;;
53207;SDS011;39093;52.788;6.940;2024-03-23T01:56:29;51.95;;;8.25;;
53207;SDS011;39093;52.788;6.940;2024-03-23T01:58:55;41.58;;;7.50;;
53207;SDS011;39093;52.788;6.940;2024-03-23T02:01:22;45.38;;;9.52;;
53207;SDS011;39093;52.788;6.940;2024-03-23T02:03:48;43.88;;;7.28;;
53207;SDS011;39093;52.788;6.940;2024-03-23T02:06:14;47.33;;;7.60;;
53207;SDS011;39093;52.788;6.940;2024-03-23T02:08:40;48.38;;;7.53;;
53207;SDS011;39093;52.788;6.940;2024-03-23T02:11:06;45.97;;;7.28;;
53207;SDS011;39093;52.788;6.940;2024-03-23T02:13:32;39.22;;;7.70;;
53207;SDS011;39093;52.788;6.940;2024-03-23T02:15:58;44.88;;;7.72;;
53207;SDS011;39093;52.788;6.940;2024-03-23T02:18:24;51.78;;;8.15;;
53207;SDS011;39093;52.788;6.940;2024-03-23T02:20:50;39.50;;;7.95;;
53207;SDS011;39093;52.788;6.940;2024-03-23T02:23:16;47.13;;;8.02;;
53207;SDS011;39093;52.788;6.940;2024-03-23T02:25:46;37.95;;;7.18;;
53207;SDS011;39093;52.788;6.940;2024-03-23T02:28:12;47.80;;;8.98;;
53207;SDS011;39093;52.788;6.940;2024-03-23T02:30:38;48.42;;;7.35;;
53207;SDS011;39093;52.788;6.940;2024-03-23T02:33:04;49.92;;;8.23;;
53207;SDS011;39093;52.788;6.940;2024-03-23T02:35:30;42.30;;;7.82;;
53207;SDS011;39093;52.788;6.940;2024-03-23T02:37:56;43.10;;;7.47;;
53207;SDS011;39093;52.788;6.940;2024-03-23T02:40:23;42.47;;;7.03;;
53207;SDS011;39093;52.788;6.940;2024-03-23T02:42:49;53.58;;;8.15;;
53207;SDS011;39093;52.788;6.940;2024-03-23T02:45:15;46.13;;;7.65;;
53207;SDS011;39093;52.788;6.940;2024-03-23T02:47:41;45.35;;;7.15;;
53207;SDS011;39093;52.788;6.940;2024-03-23T02:50:08;36.78;;;6.82;;
53207;SDS011;39093;52.788;6.940;2024-03-23T02:52:35;47.75;;;9.07;;
53207;SDS011;39093;52.788;6.940;2024-03-23T02:55:01;39.88;;;7.38;;
53207;SDS011;39093;52.788;6.940;2024-03-23T02:57:28;48.22;;;7.53;;
53207;SDS011;39093;52.788;6.940;2024-03-23T02:59:54;51.03;;;8.68;;
53207;SDS011;39093;52.788;6.940;2024-03-23T03:02:20;40.60;;;8.00;;
53207;SDS011;39093;52.788;6.940;2024-03-23T03:04:46;42.95;;;8.27;;
53207;SDS011;39093;52.788;6.940;2024-03-23T03:07:13;42.13;;;8.32;;
53207;SDS011;39093;52.788;6.940;2024-03-23T03:09:39;47.03;;;9.10;;
53207;SDS011;39093;52.788;6.940;2024-03-23T03:12:05;44.50;;;8.48;;
53207;SDS011;39093;52.788;6.940;2024-03-23T03:14:32;49.03;;;8.10;;
53207;SDS011;39093;52.788;6.940;2024-03-23T03:16:58;41.53;;;8.50;;
53207;SDS011;39093;52.788;6.940;2024-03-23T03:19:24;46.45;;;8.70;;
53207;SDS011;39093;52.788;6.940;2024-03-23T03:21:50;53.78;;;9.75;;
53207;SDS011;39093;52.788;6.940;2024-03-23T03:24:16;46.90;;;9.25;;
53207;SDS011;39093;52.788;6.940;2024-03-23T03:26:42;49.50;;;9.30;;
53207;SDS011;39093;52.788;6.940;2024-03-23T03:29:08;55.88;;;8.80;;
53207;SDS011;39093;52.788;6.940;2024-03-23T03:31:34;41.45;;;8.25;;
53207;SDS011;39093;52.788;6.940;2024-03-23T03:34:00;43.47;;;8.77;;
53207;SDS011;39093;52.788;6.940;2024-03-23T03:36:26;47.05;;;9.50;;
53207;SDS011;39093;52.788;6.940;2024-03-23T03:38:52;57.92;;;10.68;;
53207;SDS011;39093;52.788;6.940;2024-03-23T03:41:18;53.38;;;8.82;;
53207;SDS011;39093;52.788;6.940;2024-03-23T03:43:44;38.58;;;7.70;;
53207;SDS011;39093;52.788;6.940;2024-03-23T03:46:10;44.83;;;8.60;;
53207;SDS011;39093;52.788;6.940;2024-03-23T03:48:36;34.75;;;7.88;;
53207;SDS011;39093;52.788;6.940;2024-03-23T03:51:02;42.72;;;9.38;;
53207;SDS011;39093;52.788;6.940;2024-03-23T03:53:29;44.90;;;7.75;;
53207;SDS011;39093;52.788;6.940;2024-03-23T03:55:56;48.15;;;8.18;;
53207;SDS011;39093;52.788;6.940;2024-03-23T03:58:22;35.85;;;8.90;;
53207;SDS011;39093;52.788;6.940;2024-03-23T04:00:48;39.85;;;7.38;;
53207;SDS011;39093;52.788;6.940;2024-03-23T04:03:13;41.00;;;7.25;;
53207;SDS011;39093;52.788;6.940;2024-03-23T04:05:39;42.35;;;8.50;;
53207;SDS011;39093;52.788;6.940;2024-03-23T04:08:07;41.00;;;8.13;;
53207;SDS011;39093;52.788;6.940;2024-03-23T04:10:33;37.13;;;7.10;;
53207;SDS011;39093;52.788;6.940;2024-03-23T04:13:00;39.25;;;8.43;;
53207;SDS011;39093;52.788;6.940;2024-03-23T04:15:26;36.45;;;8.52;;
53207;SDS011;39093;52.788;6.940;2024-03-23T04:17:52;39.78;;;8.57;;
53207;SDS011;39093;52.788;6.940;2024-03-23T04:20:18;40.83;;;8.20;;
53207;SDS011;39093;52.788;6.940;2024-03-23T04:22:44;36.92;;;7.88;;
53207;SDS011;39093;52.788;6.940;2024-03-23T04:25:10;45.75;;;8.25;;
53207;SDS011;39093;52.788;6.940;2024-03-23T04:27:36;35.20;;;8.48;;
53207;SDS011;39093;52.788;6.940;2024-03-23T04:30:03;46.17;;;8.43;;
53207;SDS011;39093;52.788;6.940;2024-03-23T04:32:35;53.30;;;7.70;;
53207;SDS011;39093;52.788;6.940;2024-03-23T04:35:01;38.88;;;7.75;;
53207;SDS011;39093;52.788;6.940;2024-03-23T04:37:28;42.60;;;7.68;;
53207;SDS011;39093;52.788;6.940;2024-03-23T04:39:54;43.35;;;8.02;;
53207;SDS011;39093;52.788;6.940;2024-03-23T04:42:20;36.30;;;7.22;;
53207;SDS011;39093;52.788;6.940;2024-03-23T04:44:46;37.60;;;7.25;;
53207;SDS011;39093;52.788;6.940;2024-03-23T04:47:11;44.40;;;8.00;;
53207;SDS011;39093;52.788;6.940;2024-03-23T04:49:37;43.80;;;7.28;;
53207;SDS011;39093;52.788;6.940;2024-03-23T04:52:04;48.47;;;8.05;;
53207;SDS011;39093;52.788;6.940;2024-03-23T04:54:30;36.45;;;8.35;;
53207;SDS011;39093;52.788;6.940;2024-03-23T04:56:57;39.95;;;7.80;;
53207;SDS011;39093;52.788;6.940;2024-03-23T04:59:23;44.05;;;7.65;;
53207;SDS011;39093;52.788;6.940;2024-03-23T05:01:49;41.90;;;7.90;;
53207;SDS011;39093;52.788;6.940;2024-03-23T05:04:15;38.17;;;8.75;;
53207;SDS011;39093;52.788;6.940;2024-03-23T05:06:41;27.55;;;7.00;;
53207;SDS011;39093;52.788;6.940;2024-03-23T05:09:07;46.67;;;8.38;;
53207;SDS011;39093;52.788;6.940;2024-03-23T05:11:37;39.33;;;7.10;;
53207;SDS011;39093;52.788;6.940;2024-03-23T05:14:04;42.42;;;8.15;;
53207;SDS011;39093;52.788;6.940;2024-03-23T05:16:30;39.55;;;7.90;;
53207;SDS011;39093;52.788;6.940;2024-03-23T05:18:56;44.17;;;8.25;;
53207;SDS011;39093;52.788;6.940;2024-03-23T05:21:22;44.50;;;7.50;;
53207;SDS011;39093;52.788;6.940;2024-03-23T05:23:47;47.33;;;7.45;;
53207;SDS011;39093;52.788;6.940;2024-03-23T05:26:14;44.85;;;8.85;;
53207;SDS011;39093;52.788;6.940;2024-03-23T05:28:40;35.10;;;8.27;;
53207;SDS011;39093;52.788;6.940;2024-03-23T05:31:06;32.92;;;7.93;;
53207;SDS011;39093;52.788;6.940;2024-03-23T05:33:32;41.42;;;7.85;;
53207;SDS011;39093;52.788;6.940;2024-03-23T05:35:58;39.03;;;8.52;;
53207;SDS011;39093;52.788;6.940;2024-03-23T05:38:26;32.53;;;6.88;;
53207;SDS011;39093;52.788;6.940;2024-03-23T05:40:58;43.50;;;8.55;;
53207;SDS011;39093;52.788;6.940;2024-03-23T05:43:25;37.92;;;7.20;;
53207;SDS011;39093;52.788;6.940;2024-03-23T05:48:24;31.40;;;6.90;;
53207;SDS011;39093;52.788;6.940;2024-03-23T05:50:51;34.00;;;7.50;;
53207;SDS011;39093;52.788;6.940;2024-03-23T05:53:17;34.00;;;7.10;;
53207;SDS011;39093;52.788;6.940;2024-03-23T05:55:46;29.52;;;8.10;;
53207;SDS011;39093;52.788;6.940;2024-03-23T05:58:15;42.25;;;7.72;;
53207;SDS011;39093;52.788;6.940;2024-03-23T06:00:41;46.15;;;7.53;;
53207;SDS011;39093;52.788;6.940;2024-03-23T06:03:07;38.83;;;7.50;;
53207;SDS011;39093;52.788;6.940;2024-03-23T06:05:34;35.40;;;6.57;;
53207;SDS011;39093;52.788;6.940;2024-03-23T06:08:00;41.17;;;7.00;;
53207;SDS011;39093;52.788;6.940;2024-03-23T06:10:26;39.45;;;6.97;;
53207;SDS011;39093;52.788;6.940;2024-03-23T06:12:52;37.50;;;7.43;;
53207;SDS011;39093;52.788;6.940;2024-03-23T06:15:18;42.90;;;8.75;;
53207;SDS011;39093;52.788;6.940;2024-03-23T06:17:45;30.98;;;7.60;;
53207;SDS011;39093;52.788;6.940;2024-03-23T06:20:11;40.33;;;6.65;;
53207;SDS011;39093;52.788;6.940;2024-03-23T06:22:38;32.13;;;6.13;;
53207;SDS011;39093;52.788;6.940;2024-03-23T06:25:04;28.17;;;6.68;;
53207;SDS011;39093;52.788;6.940;2024-03-23T06:27:30;40.05;;;7.38;;
53207;SDS011;39093;52.788;6.940;2024-03-23T06:30:00;26.88;;;5.75;;
53207;SDS011;39093;52.788;6.940;2024-03-23T06:32:27;29.67;;;5.70;;
53207;SDS011;39093;52.788;6.940;2024-03-23T06:34:54;29.63;;;7.25;;
53207;SDS011;39093;52.788;6.940;2024-03-23T06:37:20;33.28;;;6.47;;
53207;SDS011;39093;52.788;6.940;2024-03-23T06:39:46;31.55;;;7.03;;
53207;SDS011;39093;52.788;6.940;2024-03-23T06:42:12;32.75;;;6.45;;
53207;SDS011;39093;52.788;6.940;2024-03-23T06:44:38;30.27;;;6.60;;
53207;SDS011;39093;52.788;6.940;2024-03-23T06:47:05;27.67;;;6.20;;
53207;SDS011;39093;52.788;6.940;2024-03-23T06:49:31;31.40;;;6.30;;
53207;SDS011;39093;52.788;6.940;2024-03-23T06:51:57;36.58;;;7.97;;
53207;SDS011;39093;52.788;6.940;2024-03-23T06:54:24;29.63;;;6.03;;
53207;SDS011;39093;52.788;6.940;2024-03-23T06:56:50;26.52;;;4.70;;
53207;SDS011;39093;52.788;6.940;2024-03-23T06:59:16;12.75;;;3.97;;
53207;SDS011;39093;52.788;6.940;2024-03-23T07:01:42;15.25;;;3.38;;
53207;SDS011;39093;52.788;6.940;2024-03-23T07:04:07;9.25;;;2.70;;
53207;SDS011;39093;52.788;6.940;2024-03-23T07:06:33;21.23;;;4.25;;
53207;SDS011;39093;52.788;6.940;2024-03-23T07:08:59;21.67;;;4.07;;
53207;SDS011;39093;52.788;6.940;2024-03-23T07:11:25;20.63;;;4.43;;
53207;SDS011;39093;52.788;6.940;2024-03-23T07:13:52;18.60;;;4.38;;
53207;SDS011;39093;52.788;6.940;2024-03-23T07:16:22;20.63;;;4.15;;
53207;SDS011;39093;52.788;6.940;2024-03-23T07:18:49;19.48;;;3.63;;
53207;SDS011;39093;52.788;6.940;2024-03-23T07:21:15;18.67;;;4.63;;
53207;SDS011;39093;52.788;6.940;2024-03-23T07:23:42;19.50;;;3.45;;
53207;SDS011;39093;52.788;6.940;2024-03-23T07:26:10;11.82;;;3.33;;
53207;SDS011;39093;52.788;6.940;2024-03-23T07:28:36;18.52;;;4.32;;
53207;SDS011;39093;52.788;6.940;2024-03-23T07:31:04;14.52;;;3.20;;
53207;SDS011;39093;52.788;6.940;2024-03-23T07:33:43;17.83;;;2.88;;
53207;SDS011;39093;52.788;6.940;2024-03-23T07:36:12;16.10;;;2.92;;
53207;SDS011;39093;52.788;6.940;2024-03-23T07:38:42;8.43;;;2.50;;
53207;SDS011;39093;52.788;6.940;2024-03-23T07:41:10;9.88;;;2.90;;
53207;SDS011;39093;52.788;6.940;2024-03-23T07:43:39;15.00;;;2.00;;
53207;SDS011;39093;52.788;6.940;2024-03-23T07:46:06;14.73;;;2.60;;
53207;SDS011;39093;52.788;6.940;2024-03-23T07:48:32;14.00;;;2.80;;
53207;SDS011;39093;52.788;6.940;2024-03-23T07:50:59;10.30;;;2.42;;
53207;SDS011;39093;52.788;6.940;2024-03-23T07:53:29;11.30;;;2.90;;
53207;SDS011;39093;52.788;6.940;2024-03-23T07:56:00;17.77;;;3.10;;
53207;SDS011;39093;52.788;6.940;2024-03-23T07:58:27;11.20;;;2.83;;
53207;SDS011;39093;52.788;6.940;2024-03-23T08:00:54;16.58;;;3.03;;
53207;SDS011;39093;52.788;6.940;2024-03-23T08:03:20;18.85;;;3.22;;
53207;SDS011;39093;52.788;6.940;2024-03-23T08:05:47;17.02;;;3.42;;
53207;SDS011;39093;52.788;6.940;2024-03-23T08:08:13;14.73;;;3.30;;
53207;SDS011;39093;52.788;6.940;2024-03-23T08:10:52;12.98;;;2.65;;
53207;SDS011;39093;52.788;6.940;2024-03-23T08:13:21;10.85;;;2.47;;
53207;SDS011;39093;52.788;6.940;2024-03-23T08:15:47;9.18;;;2.35;;
53207;SDS011;39093;52.788;6.940;2024-03-23T08:18:13;16.40;;;3.30;;
53207;SDS011;39093;52.788;6.940;2024-03-23T08:20:41;19.17;;;4.65;;
53207;SDS011;39093;52.788;6.940;2024-03-23T08:23:07;16.90;;;3.78;;
53207;SDS011;39093;52.788;6.940;2024-03-23T08:25:34;16.92;;;3.65;;
53207;SDS011;39093;52.788;6.940;2024-03-23T08:28:00;12.98;;;2.45;;
53207;SDS011;39093;52.788;6.940;2024-03-23T08:30:26;15.32;;;3.33;;
53207;SDS011;39093;52.788;6.940;2024-03-23T08:32:53;10.30;;;2.05;;
53207;SDS011;39093;52.788;6.940;2024-03-23T08:35:19;11.10;;;2.47;;
53207;SDS011;39093;52.788;6.940;2024-03-23T08:37:45;13.00;;;2.85;;
53207;SDS011;39093;52.788;6.940;2024-03-23T08:40:12;12.10;;;2.30;;
53207;SDS011;39093;52.788;6.940;2024-03-23T08:42:38;14.07;;;2.50;;
53207;SDS011;39093;52.788;6.940;2024-03-23T08:45:04;13.68;;;2.42;;
53207;SDS011;39093;52.788;6.940;2024-03-23T08:47:36;13.10;;;2.25;;
53207;SDS011;39093;52.788;6.940;2024-03-23T08:50:02;10.40;;;2.28;;
53207;SDS011;39093;52.788;6.940;2024-03-23T08:52:28;17.60;;;2.60;;
53207;SDS011;39093;52.788;6.940;2024-03-23T08:54:55;12.23;;;2.67;;
53207;SDS011;39093;52.788;6.940;2024-03-23T08:57:22;15.57;;;3.25;;
53207;SDS011;39093;52.788;6.940;2024-03-23T08:59:49;12.95;;;2.65;;
53207;SDS011;39093;52.788;6.940;2024-03-23T09:02:15;11.35;;;2.70;;
53207;SDS011;39093;52.788;6.940;2024-03-23T09:04:41;12.35;;;2.85;;
53207;SDS011;39093;52.788;6.940;2024-03-23T09:07:07;12.10;;;2.42;;
53207;SDS011;39093;52.788;6.940;2024-03-23T09:09:33;12.35;;;2.47;;
53207;SDS011;39093;52.788;6.940;2024-03-23T09:11:59;11.00;;;2.33;;
53207;SDS011;39093;52.788;6.940;2024-03-23T09:14:25;10.68;;;2.40;;
53207;SDS011;39093;52.788;6.940;2024-03-23T09:16:51;14.80;;;2.03;;
53207;SDS011;39093;52.788;6.940;2024-03-23T09:19:17;11.05;;;2.30;;
53207;SDS011;39093;52.788;6.940;2024-03-23T09:21:43;15.80;;;2.50;;
53207;SDS011;39093;52.788;6.940;2024-03-23T09:24:09;10.98;;;1.98;;
53207;SDS011;39093;52.788;6.940;2024-03-23T09:26:35;7.25;;;1.73;;
53207;SDS011;39093;52.788;6.940;2024-03-23T09:29:01;9.50;;;2.35;;
53207;SDS011;39093;52.788;6.940;2024-03-23T09:31:27;8.45;;;2.00;;
53207;SDS011;39093;52.788;6.940;2024-03-23T09:33:53;5.68;;;1.98;;
53207;SDS011;39093;52.788;6.940;2024-03-23T09:36:19;8.77;;;2.22;;
53207;SDS011;39093;52.788;6.940;2024-03-23T09:38:45;7.05;;;1.75;;
53207;SDS011;39093;52.788;6.940;2024-03-23T09:41:11;10.27;;;2.17;;
53207;SDS011;39093;52.788;6.940;2024-03-23T09:43:37;9.68;;;2.22;;
53207;SDS011;39093;52.788;6.940;2024-03-23T09:46:03;10.25;;;2.38;;
53207;SDS011;39093;52.788;6.940;2024-03-23T09:48:30;8.38;;;1.42;;
53207;SDS011;39093;52.788;6.940;2024-03-23T09:50:56;6.47;;;1.63;;
53207;SDS011;39093;52.788;6.940;2024-03-23T09:53:22;11.27;;;1.75;;
53207;SDS011;39093;52.788;6.940;2024-03-23T09:55:48;10.15;;;1.70;;
53207;SDS011;39093;52.788;6.940;2024-03-23T09:58:16;7.90;;;2.13;;
53207;SDS011;39093;52.788;6.940;2024-03-23T10:00:43;7.65;;;1.92;;
53207;SDS011;39093;52.788;6.940;2024-03-23T10:03:09;8.98;;;2.40;;
53207;SDS011;39093;52.788;6.940;2024-03-23T10:05:36;6.60;;;1.67;;
53207;SDS011;39093;52.788;6.940;2024-03-23T10:10:41;4.93;;;1.73;;
53207;SDS011;39093;52.788;6.940;2024-03-23T10:13:07;8.77;;;2.38;;
53207;SDS011;39093;52.788;6.940;2024-03-23T10:15:34;7.43;;;2.00;;
53207;SDS011;39093;52.788;6.940;2024-03-23T10:18:19;12.27;;;2.03;;
53207;SDS011;39093;52.788;6.940;2024-03-23T10:20:51;12.25;;;2.88;;
53207;SDS011;39093;52.788;6.940;2024-03-23T10:23:40;8.55;;;1.98;;
53207;SDS011;39093;52.788;6.940;2024-03-23T10:26:17;9.25;;;2.10;;
53207;SDS011;39093;52.788;6.940;2024-03-23T10:31:25;8.60;;;2.13;;
53207;SDS011;39093;52.788;6.940;2024-03-23T10:33:51;9.55;;;1.90;;
53207;SDS011;39093;52.788;6.940;2024-03-23T10:36:23;10.63;;;1.80;;
53207;SDS011;39093;52.788;6.940;2024-03-23T10:38:51;8.48;;;3.08;;
53207;SDS011;39093;52.788;6.940;2024-03-23T10:41:18;10.20;;;1.50;;
53207;SDS011;39093;52.788;6.940;2024-03-23T10:43:48;5.50;;;1.20;;
53207;SDS011;39093;52.788;6.940;2024-03-23T10:46:14;7.15;;;1.05;;
53207;SDS011;39093;52.788;6.940;2024-03-23T10:48:41;4.97;;;0.88;;
53207;SDS011;39093;52.788;6.940;2024-03-23T10:51:08;8.30;;;1.40;;
53207;SDS011;39093;52.788;6.940;2024-03-23T10:53:36;8.65;;;1.65;;
53207;SDS011;39093;52.788;6.940;2024-03-23T10:56:02;8.60;;;2.30;;
53207;SDS011;39093;52.788;6.940;2024-03-23T10:58:33;13.93;;;3.22;;
53207;SDS011;39093;52.788;6.940;2024-03-23T11:01:06;9.82;;;3.42;;
53207;SDS011;39093;52.788;6.940;2024-03-23T11:05:59;29.88;;;9.52;;
53207;SDS011;39093;52.788;6.940;2024-03-23T11:08:32;18.65;;;6.22;;
53207;SDS011;39093;52.788;6.940;2024-03-23T11:11:12;20.13;;;7.40;;
53207;SDS011;39093;52.788;6.940;2024-03-23T11:13:38;19.08;;;5.65;;
53207;SDS011;39093;52.788;6.940;2024-03-23T11:18:43;12.95;;;3.30;;
53207;SDS011;39093;52.788;6.940;2024-03-23T11:21:10;12.48;;;3.80;;
53207;SDS011;39093;52.788;6.940;2024-03-23T11:23:36;10.40;;;3.05;;
53207;SDS011;39093;52.788;6.940;2024-03-23T11:26:02;19.20;;;4.75;;
53207;SDS011;39093;52.788;6.940;2024-03-23T11:28:33;8.05;;;2.38;;
53207;SDS011;39093;52.788;6.940;2024-03-23T11:30:59;11.65;;;3.50;;
53207;SDS011;39093;52.788;6.940;2024-03-23T11:33:24;11.52;;;3.90;;
53207;SDS011;39093;52.788;6.940;2024-03-23T11:35:50;9.68;;;3.03;;
53207;SDS011;39093;52.788;6.940;2024-03-23T11:38:17;7.60;;;1.80;;
53207;SDS011;39093;52.788;6.940;2024-03-23T11:40:48;7.88;;;1.58;;
53207;SDS011;39093;52.788;6.940;2024-03-23T11:45:42;4.63;;;1.60;;
53207;SDS011;39093;52.788;6.940;2024-03-23T11:50:38;8.07;;;1.83;;
53207;SDS011;39093;52.788;6.940;2024-03-23T11:53:18;8.48;;;2.00;;
53207;SDS011;39093;52.788;6.940;2024-03-23T11:58:16;7.43;;;1.67;;
53207;SDS011;39093;52.788;6.940;2024-03-23T12:00:49;11.98;;;1.63;;
53207;SDS011;39093;52.788;6.940;2024-03-23T12:03:16;6.82;;;1.73;;
53207;SDS011;39093;52.788;6.940;2024-03-23T12:05:47;8.95;;;1.80;;
53207;SDS011;39093;52.788;6.940;2024-03-23T12:08:25;7.90;;;2.22;;
53207;SDS011;39093;52.788;6.940;2024-03-23T12:11:08;7.45;;;1.55;;
53207;SDS011;39093;52.788;6.940;2024-03-23T12:13:36;10.77;;;2.00;;
53207;SDS011;39093;52.788;6.940;2024-03-23T12:16:18;8.25;;;1.92;;
53207;SDS011;39093;52.788;6.940;2024-03-23T12:18:46;6.32;;;1.50;;
53207;SDS011;39093;52.788;6.940;2024-03-23T12:21:14;7.03;;;1.17;;
53207;SDS011;39093;52.788;6.940;2024-03-23T12:23:42;6.20;;;1.23;;
53207;SDS011;39093;52.788;6.940;2024-03-23T12:26:10;7.72;;;1.65;;
53207;SDS011;39093;52.788;6.940;2024-03-23T12:28:37;10.55;;;1.75;;
53207;SDS011;39093;52.788;6.940;2024-03-23T12:31:04;9.45;;;1.52;;
53207;SDS011;39093;52.788;6.940;2024-03-23T12:33:30;7.30;;;1.50;;
53207;SDS011;39093;52.788;6.940;2024-03-23T12:35:56;9.75;;;1.30;;
53207;SDS011;39093;52.788;6.940;2024-03-23T12:38:22;7.82;;;1.70;;
53207;SDS011;39093;52.788;6.940;2024-03-23T12:40:51;9.90;;;1.73;;
53207;SDS011;39093;52.788;6.940;2024-03-23T12:43:18;7.35;;;1.77;;
53207;SDS011;39093;52.788;6.940;2024-03-23T12:45:47;7.18;;;1.75;;
53207;SDS011;39093;52.788;6.940;2024-03-23T12:48:13;9.77;;;1.73;;
53207;SDS011;39093;52.788;6.940;2024-03-23T12:50:39;6.65;;;1.65;;
53207;SDS011;39093;52.788;6.940;2024-03-23T12:53:05;7.10;;;1.60;;
53207;SDS011;39093;52.788;6.940;2024-03-23T12:55:31;12.05;;;2.00;;
53207;SDS011;39093;52.788;6.940;2024-03-23T12:57:57;6.43;;;1.58;;
53207;SDS011;39093;52.788;6.940;2024-03-23T13:00:23;6.43;;;1.80;;
53207;SDS011;39093;52.788;6.940;2024-03-23T13:02:49;8.15;;;1.63;;
53207;SDS011;39093;52.788;6.940;2024-03-23T13:05:15;8.63;;;1.80;;
53207;SDS011;39093;52.788;6.940;2024-03-23T13:07:41;11.20;;;2.45;;
53207;SDS011;39093;52.788;6.940;2024-03-23T13:10:07;5.65;;;1.38;;
53207;SDS011;39093;52.788;6.940;2024-03-23T13:12:34;8.48;;;2.33;;
53207;SDS011;39093;52.788;6.940;2024-03-23T13:15:00;10.45;;;2.10;;
53207;SDS011;39093;52.788;6.940;2024-03-23T13:17:26;8.02;;;2.22;;
53207;SDS011;39093;52.788;6.940;2024-03-23T13:19:53;6.97;;;1.30;;
53207;SDS011;39093;52.788;6.940;2024-03-23T13:22:19;7.80;;;1.65;;
53207;SDS011;39093;52.788;6.940;2024-03-23T13:24:46;5.07;;;1.45;;
53207;SDS011;39093;52.788;6.940;2024-03-23T13:27:12;7.22;;;1.65;;
53207;SDS011;39093;52.788;6.940;2024-03-23T13:29:38;5.32;;;1.70;;
53207;SDS011;39093;52.788;6.940;2024-03-23T13:32:04;9.45;;;1.95;;
53207;SDS011;39093;52.788;6.940;2024-03-23T13:34:31;11.98;;;1.90;;
53207;SDS011;39093;52.788;6.940;2024-03-23T13:36:58;7.05;;;2.10;;
53207;SDS011;39093;52.788;6.940;2024-03-23T13:39:25;11.15;;;1.88;;
53207;SDS011;39093;52.788;6.940;2024-03-23T13:41:53;9.73;;;1.85;;
53207;SDS011;39093;52.788;6.940;2024-03-23T13:44:20;11.65;;;2.35;;
53207;SDS011;39093;52.788;6.940;2024-03-23T13:46:46;11.98;;;1.92;;
53207;SDS011;39093;52.788;6.940;2024-03-23T13:49:24;9.20;;;2.17;;
53207;SDS011;39093;52.788;6.940;2024-03-23T13:51:57;5.20;;;1.60;;
53207;SDS011;39093;52.788;6.940;2024-03-23T13:54:27;6.32;;;1.60;;
53207;SDS011;39093;52.788;6.940;2024-03-23T13:56:56;6.97;;;1.50;;
53207;SDS011;39093;52.788;6.940;2024-03-23T13:59:22;5.07;;;1.60;;
53207;SDS011;39093;52.788;6.940;2024-03-23T14:01:49;7.40;;;1.75;;
53207;SDS011;39093;52.788;6.940;2024-03-23T14:04:18;8.70;;;1.85;;
53207;SDS011;39093;52.788;6.940;2024-03-23T14:06:45;12.25;;;2.20;;
53207;SDS011;39093;52.788;6.940;2024-03-23T14:09:12;9.30;;;2.15;;
53207;SDS011;39093;52.788;6.940;2024-03-23T14:11:39;9.07;;;1.80;;
53207;SDS011;39093;52.788;6.940;2024-03-23T14:14:08;9.98;;;2.15;;
53207;SDS011;39093;52.788;6.940;2024-03-23T14:16:34;10.90;;;2.30;;
53207;SDS011;39093;52.788;6.940;2024-03-23T14:19:00;9.52;;;2.50;;
53207;SDS011;39093;52.788;6.940;2024-03-23T14:21:26;9.38;;;2.25;;
53207;SDS011;39093;52.788;6.940;2024-03-23T14:23:52;8.18;;;1.75;;
53207;SDS011;39093;52.788;6.940;2024-03-23T14:26:20;6.45;;;1.30;;
53207;SDS011;39093;52.788;6.940;2024-03-23T14:28:46;7.45;;;1.20;;
53207;SDS011;39093;52.788;6.940;2024-03-23T14:31:12;4.60;;;1.40;;
53207;SDS011;39093;52.788;6.940;2024-03-23T14:33:38;6.53;;;1.30;;
53207;SDS011;39093;52.788;6.940;2024-03-23T14:36:14;11.60;;;1.75;;
53207;SDS011;39093;52.788;6.940;2024-03-23T14:38:41;7.05;;;1.90;;
53207;SDS011;39093;52.788;6.940;2024-03-23T14:41:07;8.02;;;1.92;;
53207;SDS011;39093;52.788;6.940;2024-03-23T14:43:33;11.48;;;2.08;;
53207;SDS011;39093;52.788;6.940;2024-03-23T14:48:36;10.50;;;2.25;;
53207;SDS011;39093;52.788;6.940;2024-03-23T14:51:02;9.38;;;1.83;;
53207;SDS011;39093;52.788;6.940;2024-03-23T14:53:30;11.00;;;1.95;;
53207;SDS011;39093;52.788;6.940;2024-03-23T14:56:00;9.70;;;2.30;;
53207;SDS011;39093;52.788;6.940;2024-03-23T14:58:27;10.98;;;2.42;;
53207;SDS011;39093;52.788;6.940;2024-03-23T15:00:57;10.15;;;2.08;;
53207;SDS011;39093;52.788;6.940;2024-03-23T15:03:28;9.70;;;2.35;;
53207;SDS011;39093;52.788;6.940;2024-03-23T15:05:55;9.57;;;2.50;;
53207;SDS011;39093;52.788;6.940;2024-03-23T15:08:22;7.88;;;1.73;;
53207;SDS011;39093;52.788;6.940;2024-03-23T15:10:49;15.02;;;2.60;;
53207;SDS011;39093;52.788;6.940;2024-03-23T15:13:15;14.07;;;2.17;;
53207;SDS011;39093;52.788;6.940;2024-03-23T15:15:41;7.43;;;1.52;;
53207;SDS011;39093;52.788;6.940;2024-03-23T15:18:11;5.40;;;1.77;;
53207;SDS011;39093;52.788;6.940;2024-03-23T15:20:41;8.55;;;1.83;;
53207;SDS011;39093;52.788;6.940;2024-03-23T15:23:16;6.35;;;1.55;;
53207;SDS011;39093;52.788;6.940;2024-03-23T15:25:42;10.88;;;1.92;;
53207;SDS011;39093;52.788;6.940;2024-03-23T15:28:08;11.13;;;2.33;;
53207;SDS011;39093;52.788;6.940;2024-03-23T15:30:35;11.10;;;2.10;;
53207;SDS011;39093;52.788;6.940;2024-03-23T15:33:01;9.07;;;2.13;;
53207;SDS011;39093;52.788;6.940;2024-03-23T15:35:27;6.18;;;1.70;;
53207;SDS011;39093;52.788;6.940;2024-03-23T15:37:53;8.13;;;1.80;;
53207;SDS011;39093;52.788;6.940;2024-03-23T15:40:19;8.45;;;2.10;;
53207;SDS011;39093;52.788;6.940;2024-03-23T15:42:45;10.88;;;1.77;;
53207;SDS011;39093;52.788;6.940;2024-03-23T15:45:12;9.40;;;1.92;;
53207;SDS011;39093;52.788;6.940;2024-03-23T15:47:38;8.35;;;1.83;;
53207;SDS011;39093;52.788;6.940;2024-03-23T15:50:04;10.52;;;2.47;;
53207;SDS011;39093;52.788;6.940;2024-03-23T15:52:34;8.55;;;1.98;;